Time;durP1;ratioP1;P1;durP2;ratioP2;P2;SDS_P1;SDS_P2;PMS_P1;PMS_P2;Temp;Humidity;BMP_temperature;BMP_pressure;BME280_temperature;BME280_humidity;BME280_pressure;Samples;Min_cycle;Max_cycle;Signal;HPM_P1;HPM_P2
2023/05/16 00:00:58;;;;;;;19.27;13.67;;;;;;;12.15;100.00;98435.97;4902647;29;20239;-61
2023/05/16 00:03:24;;;;;;;16.87;13.07;;;;;;;12.14;100.00;98436.97;4900131;28;20276;-60
2023/05/16 00:05:52;;;;;;;17.70;13.63;;;;;;;12.11;100.00;98434.69;4902809;29;20244;-61
2023/05/16 00:08:18;;;;;;;16.40;13.57;;;;;;;12.08;100.00;98437.63;4900043;28;20221;-60
2023/05/16 00:10:46;;;;;;;18.97;13.27;;;;;;;12.12;100.00;98438.13;4903573;29;20273;-59
2023/05/16 00:13:13;;;;;;;21.50;14.43;;;;;;;12.06;100.00;98436.97;4903028;28;20775;-61
2023/05/16 00:15:39;;;;;;;16.53;13.17;;;;;;;12.03;100.00;98434.69;4907300;29;20229;-60
2023/05/16 00:18:06;;;;;;;17.37;12.63;;;;;;;12.00;100.00;98433.22;4887153;29;20232;-63
2023/05/16 00:20:33;;;;;;;18.43;13.87;;;;;;;11.96;100.00;98429.28;4903639;29;20247;-59
2023/05/16 00:23:00;;;;;;;18.33;13.27;;;;;;;11.95;100.00;98422.41;4906599;29;20243;-61
2023/05/16 00:25:27;;;;;;;17.70;13.23;;;;;;;11.93;100.00;98427.78;4904170;29;20268;-60
2023/05/16 00:27:55;;;;;;;15.97;12.83;;;;;;;11.91;100.00;98424.53;4907690;29;20591;-60
2023/05/16 00:30:22;;;;;;;18.77;14.60;;;;;;;11.89;100.00;98418.63;4920243;29;20228;-61
2023/05/16 00:32:51;;;;;;;18.43;14.00;;;;;;;11.91;100.00;98421.91;4908314;29;20249;-61
2023/05/16 00:35:18;;;;;;;18.60;14.60;;;;;;;11.91;100.00;98424.53;4881893;29;20297;-60
2023/05/16 00:37:44;;;;;;;20.13;14.07;;;;;;;11.87;100.00;98417.19;4892739;29;20246;-61
2023/05/16 00:40:12;;;;;;;17.50;13.80;;;;;;;11.88;100.00;98422.25;4909924;29;20255;-60
2023/05/16 00:42:39;;;;;;;20.00;14.27;;;;;;;11.88;100.00;98419.63;4876611;29;20235;-60
2023/05/16 00:45:09;;;;;;;22.40;15.00;;;;;;;11.86;100.00;98423.41;4911433;29;20236;-60
2023/05/16 00:47:37;;;;;;;17.97;15.00;;;;;;;11.84;100.00;98423.53;4892772;29;20256;-60
2023/05/16 00:50:04;;;;;;;20.43;14.60;;;;;;;11.85;100.00;98417.34;4888756;29;20235;-60
2023/05/16 00:52:32;;;;;;;18.93;14.30;;;;;;;11.82;100.00;98417.66;4908076;28;24493;-60
2023/05/16 00:54:59;;;;;;;20.57;14.87;;;;;;;11.81;100.00;98424.69;4925336;29;20255;-60
2023/05/16 00:57:25;;;;;;;19.53;14.70;;;;;;;11.80;100.00;98417.84;4899998;28;20231;-60
2023/05/16 00:59:52;;;;;;;18.80;14.60;;;;;;;11.77;100.00;98427.78;4888489;29;20282;-61
2023/05/16 01:02:20;;;;;;;20.13;14.80;;;;;;;11.74;100.00;98422.88;4886846;28;20615;-61
2023/05/16 01:04:48;;;;;;;18.67;14.23;;;;;;;11.74;100.00;98422.88;4893876;29;20220;-60
2023/05/16 01:07:15;;;;;;;23.73;16.17;;;;;;;11.73;100.00;98426.47;4923245;28;20768;-61
2023/05/16 01:09:42;;;;;;;19.50;15.33;;;;;;;11.76;100.00;98428.78;4889247;29;20231;-61
2023/05/16 01:12:15;;;;;;;21.93;16.40;;;;;;;11.78;100.00;98426.81;4894186;29;20707;-61
2023/05/16 01:14:50;;;;;;;16.53;14.07;;;;;;;11.79;100.00;98425.84;4907551;29;20223;-61
2023/05/16 01:17:29;;;;;;;19.27;15.90;;;;;;;11.77;100.00;98433.03;4891573;28;20216;-61
2023/05/16 01:20:03;;;;;;;20.10;15.77;;;;;;;11.80;100.00;98430.91;4886981;29;20247;-61
2023/05/16 01:22:42;;;;;;;19.33;15.63;;;;;;;11.86;100.00;98431.25;4908394;28;20258;-61
2023/05/16 01:25:21;;;;;;;21.40;15.97;;;;;;;11.82;100.00;98431.56;4892936;29;20798;-61
2023/05/16 01:27:50;;;;;;;22.53;17.13;;;;;;;11.82;100.00;98433.34;4887587;29;20290;-61
2023/05/16 01:30:19;;;;;;;24.83;18.17;;;;;;;11.81;100.00;98431.72;4922654;29;20230;-61
2023/05/16 01:32:46;;;;;;;22.20;17.57;;;;;;;11.82;100.00;98433.34;4909313;28;20232;-61
2023/05/16 01:35:15;;;;;;;27.83;18.27;;;;;;;11.79;100.00;98433.69;4884587;29;20242;-61
2023/05/16 01:37:48;;;;;;;22.50;18.77;;;;;;;11.77;100.00;98433.03;4892964;29;20236;-60
2023/05/16 01:40:21;;;;;;;25.10;19.27;;;;;;;11.75;100.00;98429.75;4908668;29;20292;-61
2023/05/16 01:42:52;;;;;;;24.03;18.37;;;;;;;11.77;100.00;98431.25;4910894;28;20239;-61
2023/05/16 01:45:23;;;;;;;26.07;18.83;;;;;;;11.78;100.00;98425.03;4891420;29;20698;-61
2023/05/16 01:48:00;;;;;;;22.80;17.87;;;;;;;11.79;100.00;98426.66;4910422;28;20243;-61
2023/05/16 01:50:32;;;;;;;25.73;18.17;;;;;;;11.81;100.00;98426.50;4907971;29;20240;-61
2023/05/16 01:53:03;;;;;;;25.30;17.97;;;;;;;11.87;100.00;98436.28;4886403;29;20247;-61
2023/05/16 01:55:39;;;;;;;22.63;17.60;;;;;;;11.84;100.00;98428.78;4922115;29;20243;-62
2023/05/16 01:58:10;;;;;;;25.73;18.27;;;;;;;11.85;100.00;98433.03;4893321;29;20231;-61
2023/05/16 02:00:36;;;;;;;25.13;19.17;;;;;;;11.80;100.00;98437.94;4908308;29;20314;-62
2023/05/16 02:03:04;;;;;;;25.87;19.73;;;;;;;11.78;100.00;98438.09;4886330;29;20722;-61
2023/05/16 02:05:30;;;;;;;23.43;18.13;;;;;;;11.79;100.00;98433.69;4908292;29;20943;-61
2023/05/16 02:07:57;;;;;;;23.73;18.37;;;;;;;11.79;100.00;98442.34;4910671;28;20598;-61
2023/05/16 02:10:24;;;;;;;24.40;19.10;;;;;;;11.78;100.00;98442.50;4922029;29;20239;-61
2023/05/16 02:12:51;;;;;;;26.27;20.40;;;;;;;11.80;100.00;98438.75;4908547;28;20594;-61
2023/05/16 02:15:20;;;;;;;28.37;18.93;;;;;;;11.78;100.00;98437.28;4890517;29;20279;-61
2023/05/16 02:17:47;;;;;;;27.10;17.67;;;;;;;11.77;100.00;98433.84;4885256;29;21055;-61
2023/05/16 02:20:14;;;;;;;23.00;17.27;;;;;;;11.74;100.00;98433.34;4881997;29;20652;-61
2023/05/16 02:22:41;;;;;;;24.80;17.43;;;;;;;11.72;100.00;98438.75;4910150;28;20309;-62
2023/05/16 02:25:08;;;;;;;23.20;17.40;;;;;;;11.72;100.00;98433.53;4910551;29;20235;-61
2023/05/16 02:27:35;;;;;;;26.20;18.67;;;;;;;11.67;100.00;98435.81;4908066;28;20708;-62
2023/05/16 02:30:02;;;;;;;27.93;20.00;;;;;;;11.66;100.00;98440.22;4910506;29;20254;-61
2023/05/16 02:32:30;;;;;;;27.17;20.67;;;;;;;11.65;100.00;98438.59;4906851;28;21007;-62
2023/05/16 02:34:57;;;;;;;30.23;21.63;;;;;;;11.60;100.00;98438.28;4909020;29;20231;-60
2023/05/16 02:37:24;;;;;;;31.33;21.80;;;;;;;11.61;100.00;98442.53;4907608;28;20278;-61
2023/05/16 02:39:51;;;;;;;32.93;21.63;;;;;;;11.57;100.00;98435.97;4910565;29;20234;-61
2023/05/16 02:42:17;;;;;;;37.47;24.40;;;;;;;11.50;100.00;98435.78;4890605;28;20235;-61
2023/05/16 02:44:44;;;;;;;39.70;24.97;;;;;;;11.46;100.00;98444.94;4892446;29;20632;-61
2023/05/16 02:47:11;;;;;;;40.93;26.27;;;;;;;11.44;100.00;98441.66;4893027;29;20242;-61
2023/05/16 02:49:38;;;;;;;41.10;25.93;;;;;;;11.44;100.00;98438.25;4907361;29;20238;-61
2023/05/16 02:52:06;;;;;;;52.40;27.27;;;;;;;11.46;100.00;98431.84;4892503;29;20238;-61
2023/05/16 02:54:33;;;;;;;41.67;26.83;;;;;;;11.43;100.00;98439.22;4905686;29;20228;-61
2023/05/16 02:56:59;;;;;;;44.43;28.27;;;;;;;11.39;100.00;98433.47;4886528;29;20231;-61
2023/05/16 02:59:27;;;;;;;46.87;28.07;;;;;;;11.36;100.00;98437.25;4921132;29;20706;-61
2023/05/16 03:01:53;;;;;;;47.30;27.33;;;;;;;11.26;100.00;98441.78;4884038;29;20616;-61
2023/05/16 03:04:24;;;;;;;46.27;27.80;;;;;;;11.28;100.00;98444.22;4905789;29;20242;-61
2023/05/16 03:06:52;;;;;;;45.03;27.60;;;;;;;11.28;100.00;98445.06;4909816;29;20232;-61
2023/05/16 03:09:18;;;;;;;42.03;25.87;;;;;;;11.28;100.00;98431.16;4879319;29;20236;-61
2023/05/16 03:11:45;;;;;;;40.70;25.93;;;;;;;11.28;100.00;98434.63;4909312;29;20743;-60
2023/05/16 03:14:12;;;;;;;42.17;27.00;;;;;;;11.28;100.00;98442.47;4922379;29;20311;-61
2023/05/16 03:16:40;;;;;;;40.53;25.83;;;;;;;11.34;100.00;98440.97;4891663;29;20296;-60
2023/05/16 03:19:07;;;;;;;44.20;26.40;;;;;;;11.30;100.00;98444.91;4887156;29;20351;-61
2023/05/16 03:21:33;;;;;;;45.30;25.97;;;;;;;11.30;100.00;98440.50;4888787;29;20294;-61
2023/05/16 03:24:02;;;;;;;41.37;25.47;;;;;;;11.31;100.00;98449.16;4884435;29;20235;-61
2023/05/16 03:26:29;;;;;;;40.57;24.87;;;;;;;11.29;100.00;98443.25;4906269;28;20334;-60
2023/05/16 03:28:55;;;;;;;41.13;26.10;;;;;;;11.34;100.00;98446.22;4891994;29;20299;-61
2023/05/16 03:31:22;;;;;;;41.00;25.50;;;;;;;11.34;100.00;98446.22;5172493;23;20242;-60
2023/05/16 03:33:49;;;;;;;45.03;27.23;;;;;;;11.37;100.00;98445.88;4919708;29;20238;-61
2023/05/16 03:36:15;;;;;;;39.77;25.90;;;;;;;11.31;100.00;98449.16;4904285;29;20231;-61
2023/05/16 03:38:42;;;;;;;40.93;26.50;;;;;;;11.33;100.00;98444.56;4921585;29;20243;-61
2023/05/16 03:41:10;;;;;;;39.67;25.87;;;;;;;11.35;100.00;98453.06;4925014;29;20239;-61
2023/05/16 03:43:37;;;;;;;43.33;27.30;;;;;;;11.37;100.00;98451.94;4922440;29;20234;-61
2023/05/16 03:46:03;;;;;;;39.13;24.73;;;;;;;11.37;100.00;98454.56;4922638;29;20230;-61
2023/05/16 03:48:30;;;;;;;41.07;26.63;;;;;;;11.40;100.00;98453.41;4916873;29;20254;-61
2023/05/16 03:50:56;;;;;;;42.97;27.50;;;;;;;11.40;100.00;98450.78;4917993;29;20235;-61
2023/05/16 03:53:23;;;;;;;43.17;28.30;;;;;;;11.37;100.00;98462.41;4916202;29;20234;-61
2023/05/16 03:55:49;;;;;;;44.60;28.17;;;;;;;11.37;100.00;98462.41;4920794;29;20248;-61
2023/05/16 03:58:17;;;;;;;43.10;27.83;;;;;;;11.40;100.00;98463.06;4900637;29;20306;-61
2023/05/16 04:00:45;;;;;;;45.43;28.93;;;;;;;11.36;100.00;98470.38;4902690;29;20306;-61
2023/05/16 04:03:12;;;;;;;46.67;28.80;;;;;;;11.35;100.00;98466.97;4920150;29;20290;-61
2023/05/16 04:05:38;;;;;;;47.23;30.13;;;;;;;11.35;100.00;98474.81;4919439;29;20664;-61
2023/05/16 04:08:05;;;;;;;51.27;30.87;;;;;;;11.33;100.00;98470.72;4919532;29;20722;-61
2023/05/16 04:10:32;;;;;;;47.40;29.80;;;;;;;11.37;100.00;98472.03;4915502;29;30779;-61
2023/05/16 04:12:58;;;;;;;47.80;28.87;;;;;;;11.33;100.00;98481.16;4919293;29;20314;-61
2023/05/16 04:15:26;;;;;;;48.30;29.10;;;;;;;11.34;100.00;98477.56;4915995;28;20227;-61
2023/05/16 04:17:53;;;;;;;49.40;30.07;;;;;;;11.36;100.00;98480.84;4919902;29;20293;-61
2023/05/16 04:20:19;;;;;;;57.83;31.33;;;;;;;11.36;100.00;98492.13;4915751;29;20635;-61
2023/05/16 04:22:46;;;;;;;48.70;29.87;;;;;;;11.36;100.00;98486.91;4919328;29;20325;-60
2023/05/16 04:25:13;;;;;;;48.77;30.00;;;;;;;11.34;100.00;98490.63;4916886;28;20230;-61
2023/05/16 04:27:39;;;;;;;49.43;30.97;;;;;;;11.36;100.00;98483.44;4918265;29;20224;-61
2023/05/16 04:30:07;;;;;;;48.23;30.43;;;;;;;11.34;100.00;98486.25;4919721;29;20230;-61
2023/05/16 04:32:35;;;;;;;49.10;28.93;;;;;;;11.31;100.00;98483.09;4918066;29;20243;-60
2023/05/16 04:35:02;;;;;;;50.63;29.93;;;;;;;11.29;100.00;98479.84;4918698;29;20666;-61
2023/05/16 04:37:29;;;;;;;53.73;30.37;;;;;;;11.33;100.00;98489.00;4916909;29;20240;-61
2023/05/16 04:39:55;;;;;;;52.53;27.63;;;;;;;11.24;100.00;98482.94;4918611;29;20244;-61
2023/05/16 04:42:23;;;;;;;47.50;28.33;;;;;;;11.11;100.00;98485.19;4916846;29;20517;-61
2023/05/16 04:44:49;;;;;;;53.03;28.23;;;;;;;11.08;100.00;98487.13;4919287;29;20230;-61
2023/05/16 04:47:16;;;;;;;51.63;29.70;;;;;;;11.08;100.00;98492.34;4919277;29;20246;-61
2023/05/16 04:49:44;;;;;;;46.27;28.23;;;;;;;11.07;100.00;98487.31;4916754;29;20681;-61
2023/05/16 04:52:10;;;;;;;48.73;29.87;;;;;;;11.06;100.00;98489.09;4919367;29;20572;-61
2023/05/16 04:54:38;;;;;;;48.93;28.57;;;;;;;11.06;100.00;98486.47;4915138;29;20245;-61
2023/05/16 04:57:05;;;;;;;44.60;26.43;;;;;;;11.07;100.00;98490.72;4919179;29;20725;-61
2023/05/16 04:59:31;;;;;;;50.43;28.60;;;;;;;11.07;100.00;98489.91;4914717;29;20228;-61
2023/05/16 05:01:58;;;;;;;48.80;28.70;;;;;;;11.07;100.00;98497.75;4919159;29;20722;-60
2023/05/16 05:04:27;;;;;;;48.90;27.43;;;;;;;11.11;100.00;98490.41;4915452;29;20220;-61
2023/05/16 05:06:55;;;;;;;54.60;29.73;;;;;;;11.13;100.00;98502.31;4918213;29;20239;-61
2023/05/16 05:09:27;;;;;;;47.93;28.40;;;;;;;11.15;100.00;98500.38;4914973;28;20227;-61
2023/05/16 05:11:53;;;;;;;46.60;27.93;;;;;;;11.20;100.00;98500.72;4917996;29;20306;-61
2023/05/16 05:14:45;;;;;;;48.90;29.27;;;;;;;11.28;100.00;98509.56;4914529;29;20246;-61
2023/05/16 05:17:11;;;;;;;51.50;30.27;;;;;;;11.25;100.00;98515.94;4921059;29;20478;-60
2023/05/16 05:19:38;;;;;;;48.67;28.33;;;;;;;11.26;100.00;98511.50;4910427;28;20292;-61
2023/05/16 05:22:06;;;;;;;45.00;27.40;;;;;;;11.25;100.00;98518.53;4916660;29;20250;-61
2023/05/16 05:24:32;;;;;;;47.13;27.37;;;;;;;11.27;100.00;98519.22;4917356;29;20302;-61
2023/05/16 05:26:59;;;;;;;40.03;25.03;;;;;;;11.25;100.00;98515.09;4926222;29;20290;-60
2023/05/16 05:29:27;;;;;;;43.90;25.33;;;;;;;11.19;100.00;98516.56;4919580;29;20615;-61
2023/05/16 05:31:53;;;;;;;42.10;25.13;;;;;;;11.14;100.00;98524.06;4921468;29;20239;-60
2023/05/16 05:34:24;;;;;;;37.33;23.53;;;;;;;11.18;100.00;98531.41;4915954;29;20218;-61
2023/05/16 05:36:50;;;;;;;39.93;23.33;;;;;;;11.11;100.00;98529.59;4920002;29;20234;-61
2023/05/16 05:39:18;;;;;;;52.53;34.60;;;;;;;11.02;100.00;98532.16;4917967;29;20582;-61
2023/05/16 05:41:45;;;;;;;42.43;23.43;;;;;;;11.05;100.00;98521.41;4921867;29;20756;-60
2023/05/16 05:44:11;;;;;;;36.50;21.87;;;;;;;11.03;100.00;98530.38;4923337;29;20226;-60
2023/05/16 05:46:38;;;;;;;41.63;23.23;;;;;;;10.91;100.00;98529.81;4903582;29;20613;-61
2023/05/16 05:49:05;;;;;;;43.47;22.93;;;;;;;10.95;100.00;98530.34;4920620;29;20302;-60
2023/05/16 05:51:32;;;;;;;39.37;23.07;;;;;;;10.96;100.00;98532.78;4921746;29;20254;-61
2023/05/16 05:53:59;;;;;;;40.07;21.90;;;;;;;10.88;100.00;98530.97;4924167;29;20238;-61
2023/05/16 05:56:27;;;;;;;39.33;23.13;;;;;;;10.93;100.00;98523.47;4915549;29;20309;-61
2023/05/16 05:58:53;;;;;;;38.43;21.73;;;;;;;10.78;100.00;98527.63;4922889;29;20229;-60
2023/05/16 06:01:21;;;;;;;40.80;21.50;;;;;;;10.83;100.00;98529.78;4906280;29;20723;-61
2023/05/16 06:03:47;;;;;;;37.53;21.10;;;;;;;10.85;100.00;98531.28;4923186;29;20240;-61
2023/05/16 06:06:14;;;;;;;42.10;22.50;;;;;;;10.81;100.00;98535.16;4918586;29;20266;-61
2023/05/16 06:08:41;;;;;;;41.77;24.37;;;;;;;10.87;100.00;98528.47;4922102;29;20236;-61
2023/05/16 06:11:08;;;;;;;41.73;23.07;;;;;;;10.87;100.00;98539.75;4922289;29;20630;-61
2023/05/16 06:13:36;;;;;;;49.87;24.83;;;;;;;10.94;100.00;98545.19;4919795;29;20297;-61
2023/05/16 06:16:03;;;;;;;41.67;22.27;;;;;;;10.92;100.00;98539.28;4922290;29;20673;-61
2023/05/16 06:18:29;;;;;;;40.23;23.77;;;;;;;10.93;100.00;98538.31;4918591;28;20276;-61
2023/05/16 06:20:56;;;;;;;43.17;23.70;;;;;;;10.95;100.00;98544.19;4922078;29;20308;-60
2023/05/16 06:23:23;;;;;;;45.67;26.10;;;;;;;10.90;100.00;98543.84;4916760;29;20293;-61
2023/05/16 06:25:51;;;;;;;44.17;26.53;;;;;;;10.89;100.00;98556.09;4919513;29;20240;-61
2023/05/16 06:28:17;;;;;;;43.37;27.03;;;;;;;10.86;100.00;98545.13;4916624;28;20238;-61
2023/05/16 06:30:46;;;;;;;47.90;26.90;;;;;;;10.93;100.00;98544.38;4919677;29;20237;-60
2023/05/16 06:33:13;;;;;;;47.07;26.03;;;;;;;10.88;100.00;98549.25;4918272;28;20228;-61
2023/05/16 06:35:40;;;;;;;39.60;24.90;;;;;;;10.97;100.00;98555.31;4922351;29;20233;-61
2023/05/16 06:38:07;;;;;;;44.13;26.37;;;;;;;10.93;100.00;98560.03;4923336;29;20278;-61
2023/05/16 06:40:33;;;;;;;43.67;26.83;;;;;;;11.02;100.00;98558.28;4915795;29;20289;-61
2023/05/16 06:43:00;;;;;;;43.70;26.17;;;;;;;11.08;100.00;98557.66;4921240;29;20240;-61
2023/05/16 06:45:26;;;;;;;39.37;22.97;;;;;;;11.08;100.00;98565.50;4916415;29;20243;-61
2023/05/16 06:47:55;;;;;;;39.13;23.03;;;;;;;11.13;100.00;98561.59;4921237;29;20241;-61
2023/05/16 06:50:22;;;;;;;40.87;22.40;;;;;;;11.11;100.00;98563.53;4918536;29;20238;-60
2023/05/16 06:52:48;;;;;;;41.40;22.00;;;;;;;11.12;100.00;98565.19;4920220;29;20307;-61
2023/05/16 06:55:15;;;;;;;35.90;20.73;;;;;;;11.17;100.00;98565.53;4918656;29;20248;-61
2023/05/16 06:57:42;;;;;;;35.93;19.67;;;;;;;11.13;100.00;98566.81;4920736;29;20235;-60
2023/05/16 07:00:09;;;;;;;32.93;19.70;;;;;;;11.02;100.00;98570.53;4920899;29;20249;-60
2023/05/16 07:02:36;;;;;;;34.73;21.17;;;;;;;11.10;100.00;98575.81;4917107;29;20241;-61
2023/05/16 07:05:04;;;;;;;39.00;22.30;;;;;;;11.09;100.00;98579.38;4919323;29;20232;-60
2023/05/16 07:07:31;;;;;;;34.60;19.63;;;;;;;11.06;100.00;98575.28;4914454;29;20371;-60
2023/05/16 07:09:57;;;;;;;37.77;20.10;;;;;;;10.95;100.00;98574.75;4919229;29;20292;-61
2023/05/16 07:12:25;;;;;;;38.03;20.33;;;;;;;10.93;100.00;98577.47;4917087;28;20245;-61
2023/05/16 07:14:52;;;;;;;38.20;21.17;;;;;;;11.00;100.00;98567.25;4919206;29;20257;-61
2023/05/16 07:17:18;;;;;;;40.30;19.57;;;;;;;10.89;100.00;98584.81;4915550;29;20245;-61
2023/05/16 07:19:45;;;;;;;38.67;21.00;;;;;;;10.83;100.00;98580.22;4919330;29;20301;-61
2023/05/16 07:22:13;;;;;;;41.27;21.47;;;;;;;10.85;100.00;98582.66;4917040;29;20242;-61
2023/05/16 07:24:39;;;;;;;33.77;19.70;;;;;;;10.85;100.00;98593.94;4918568;29;20301;-61
2023/05/16 07:27:06;;;;;;;36.03;19.33;;;;;;;10.87;100.00;98592.00;4919230;29;20302;-61
2023/05/16 07:29:34;;;;;;;33.60;19.17;;;;;;;10.91;100.00;98592.50;4914951;29;20249;-60
2023/05/16 07:32:00;;;;;;;37.37;20.00;;;;;;;10.83;100.00;98595.03;4919246;29;20239;-60
2023/05/16 07:34:27;;;;;;;35.10;19.83;;;;;;;10.88;100.00;98598.03;4916272;29;20231;-61
2023/05/16 07:36:54;;;;;;;32.97;18.47;;;;;;;10.88;100.00;98604.06;4919443;29;20241;-60
2023/05/16 07:39:48;;;;;;;29.10;17.50;;;;;;;10.96;100.00;98600.69;4915879;29;21081;-60
2023/05/16 07:42:14;;;;;;;29.03;15.47;;;;;;;10.87;100.00;98601.59;4917158;28;20246;-61
2023/05/16 07:44:41;;;;;;;27.70;16.27;;;;;;;10.87;100.00;98599.00;4921438;29;20227;-60
2023/05/16 07:47:07;;;;;;;28.33;14.87;;;;;;;10.91;100.00;98603.78;4920368;29;20230;-60
2023/05/16 07:49:34;;;;;;;26.07;14.73;;;;;;;10.99;100.00;98610.81;4914305;29;20245;-61
2023/05/16 07:52:01;;;;;;;30.00;14.20;;;;;;;10.70;100.00;98613.72;4919336;29;20241;-60
2023/05/16 07:54:27;;;;;;;26.87;15.10;;;;;;;10.74;100.00;98609.84;4902859;29;20245;-61
2023/05/16 07:56:55;;;;;;;26.77;14.80;;;;;;;10.62;100.00;98609.25;4921416;29;20240;-60
2023/05/16 07:59:29;;;;;;;21.87;12.80;;;;;;;10.72;100.00;98607.38;4917340;29;20970;-61
2023/05/16 08:01:56;;;;;;;25.27;14.47;;;;;;;10.81;100.00;98610.88;4920327;29;20301;-61
2023/05/16 08:04:27;;;;;;;21.63;12.43;;;;;;;10.84;100.00;98613.19;4916521;29;20310;-58
2023/05/16 08:06:53;;;;;;;18.50;11.20;;;;;;;10.89;100.00;98613.56;4922738;29;20266;-61
2023/05/16 08:09:45;;;;;;;20.97;11.00;;;;;;;10.75;100.00;98617.50;4915433;29;20248;-59
2023/05/16 08:12:13;;;;;;;15.53;9.60;;;;;;;10.80;100.00;98622.28;4919275;29;20894;-61
2023/05/16 08:14:39;;;;;;;19.47;9.10;;;;;;;10.83;100.00;98626.38;4918096;29;20236;-61
2023/05/16 08:17:06;;;;;;;16.07;9.97;;;;;;;10.77;100.00;98623.41;4918718;29;20234;-61
2023/05/16 08:19:33;;;;;;;15.70;8.40;;;;;;;10.89;100.00;98628.38;4917217;29;20256;-61
2023/05/16 08:21:59;;;;;;;15.23;7.80;;;;;;;10.92;100.00;98626.31;4919915;29;20756;-61
2023/05/16 08:24:27;;;;;;;14.83;7.93;;;;;;;10.97;100.00;98628.44;4917487;29;20255;-61
2023/05/16 08:26:53;;;;;;;13.60;8.00;;;;;;;11.13;100.00;98632.13;4919063;29;20238;-61
2023/05/16 08:29:46;;;;;;;11.53;6.63;;;;;;;11.14;100.00;98629.34;4911499;29;20243;-61
2023/05/16 08:32:13;;;;;;;8.53;5.80;;;;;;;11.26;100.00;98631.69;4915778;28;20317;-61
2023/05/16 08:34:40;;;;;;;10.13;5.50;;;;;;;11.42;100.00;98633.59;4916093;29;20238;-61
2023/05/16 08:37:06;;;;;;;8.30;5.33;;;;;;;11.52;100.00;98635.09;4917826;29;20233;-61
2023/05/16 08:39:33;;;;;;;8.27;4.80;;;;;;;11.54;100.00;98634.13;4918377;29;20248;-61
2023/05/16 08:42:00;;;;;;;7.97;4.77;;;;;;;11.69;100.00;98635.19;4918740;29;20250;-62
2023/05/16 08:44:29;;;;;;;5.83;4.00;;;;;;;11.83;100.00;98633.75;4916365;29;20690;-61
2023/05/16 08:46:57;;;;;;;5.20;3.40;;;;;;;11.62;100.00;98635.00;4921866;29;20262;-62
2023/05/16 08:49:27;;;;;;;5.93;3.30;;;;;;;11.74;100.00;98637.31;4914680;29;20774;-61
2023/05/16 08:51:57;;;;;;;5.03;3.00;;;;;;;11.84;100.00;98650.28;4920296;29;20260;-61
2023/05/16 08:54:27;;;;;;;3.57;2.33;;;;;;;11.69;100.00;98648.25;4904854;29;20305;-61
2023/05/16 08:56:54;;;;;;;6.33;2.87;;;;;;;11.62;100.00;98640.22;4919148;29;20233;-60
2023/05/16 08:59:28;;;;;;;4.67;2.67;;;;;;;11.60;100.00;98646.56;4920582;29;20297;-62
2023/05/16 09:01:57;;;;;;;5.80;2.50;;;;;;;11.52;100.00;98642.16;4919735;29;20737;-61
2023/05/16 09:04:27;;;;;;;4.57;2.40;;;;;;;11.25;100.00;98640.50;4916809;29;20237;-62
2023/05/16 09:06:54;;;;;;;4.47;2.27;;;;;;;11.27;100.00;98649.84;4922098;29;20234;-61
2023/05/16 09:09:27;;;;;;;3.47;1.97;;;;;;;11.12;100.00;98652.22;4919339;29;20345;-61
2023/05/16 09:11:53;;;;;;;3.50;2.03;;;;;;;11.14;100.00;98639.81;4922353;29;20328;-61
2023/05/16 09:14:46;;;;;;;3.73;1.97;;;;;;;11.12;100.00;98640.94;4920378;29;20321;-61
2023/05/16 09:17:14;;;;;;;4.13;1.80;;;;;;;10.92;99.52;98654.19;4921162;29;21027;-61
2023/05/16 09:19:42;;;;;;;2.90;1.83;;;;;;;10.93;100.00;98645.38;4918234;29;20229;-61
2023/05/16 09:22:09;;;;;;;2.63;1.23;;;;;;;10.87;99.51;98654.66;4913593;29;20232;-60
2023/05/16 09:24:38;;;;;;;3.40;1.50;;;;;;;10.96;99.16;98652.91;4918914;29;20237;-60
2023/05/16 09:27:09;;;;;;;3.60;1.67;;;;;;;11.00;98.89;98651.66;4922443;29;20308;-61
2023/05/16 09:29:35;;;;;;;3.40;1.60;;;;;;;11.00;100.00;98653.44;4917054;29;20251;-61
2023/05/16 09:32:09;;;;;;;2.97;1.70;;;;;;;10.88;100.00;98650.25;4921622;29;20232;-62
2023/05/16 09:34:39;;;;;;;3.20;1.03;;;;;;;10.99;99.81;98650.00;4917711;29;20223;-61
2023/05/16 09:37:06;;;;;;;1.57;1.40;;;;;;;11.10;100.00;98663.78;4923185;29;20713;-61
2023/05/16 09:39:33;;;;;;;2.43;1.70;;;;;;;11.08;97.92;98654.31;4919094;29;22105;-61
2023/05/16 09:41:59;;;;;;;3.10;1.67;;;;;;;11.14;99.54;98663.31;4921518;29;20290;-61
2023/05/16 09:44:27;;;;;;;3.53;1.83;;;;;;;11.17;99.25;98663.00;4918103;29;20237;-61
2023/05/16 09:46:54;;;;;;;2.20;1.57;;;;;;;11.17;98.32;98662.19;4910740;29;20232;-61
2023/05/16 09:49:27;;;;;;;1.73;1.47;;;;;;;11.25;98.85;98669.25;4917085;29;20308;-61
2023/05/16 09:51:55;;;;;;;3.00;1.77;;;;;;;11.30;97.75;98661.78;4921535;29;20653;-61
2023/05/16 09:54:31;;;;;;;2.10;1.40;;;;;;;11.13;100.00;98659.06;4915010;29;20289;-61
2023/05/16 09:56:59;;;;;;;2.43;1.63;;;;;;;11.18;99.69;98659.41;4919252;29;20241;-60
2023/05/16 09:59:28;;;;;;;5.67;2.10;;;;;;;11.35;96.99;98665.59;4919410;29;20229;-61
2023/05/16 10:01:57;;;;;;;2.10;1.90;;;;;;;11.22;99.35;98665.16;4921292;29;20236;-61
2023/05/16 10:04:27;;;;;;;2.40;2.00;;;;;;;11.27;98.05;98659.47;4917612;29;20325;-61
2023/05/16 10:06:56;;;;;;;2.80;2.50;;;;;;;11.21;98.91;98660.91;4919482;29;20227;-62
2023/05/16 10:09:27;;;;;;;3.43;2.83;;;;;;;11.30;98.80;98662.63;4917603;29;20240;-61
2023/05/16 10:11:56;;;;;;;5.20;2.93;;;;;;;11.33;98.58;98664.91;4920655;29;20314;-62
2023/05/16 10:14:27;;;;;;;4.67;3.27;;;;;;;11.20;100.00;98665.31;4918015;29;20245;-62
2023/05/16 10:16:54;;;;;;;5.07;3.20;;;;;;;11.16;100.00;98663.19;4884018;29;20716;-61
2023/05/16 10:19:29;;;;;;;4.47;3.60;;;;;;;11.09;100.00;98662.97;4917183;29;20232;-60
2023/05/16 10:22:04;;;;;;;6.07;3.70;;;;;;;11.12;100.00;98664.44;4924461;29;20233;-61
2023/05/16 10:24:39;;;;;;;4.90;3.73;;;;;;;11.17;100.00;98668.22;4921314;29;20236;-61
2023/05/16 10:27:06;;;;;;;5.77;3.10;;;;;;;11.12;99.51;98673.13;4920560;29;20244;-61
2023/05/16 10:29:32;;;;;;;6.67;3.30;;;;;;;11.00;99.96;98669.13;4920466;29;20237;-61
2023/05/16 10:32:03;;;;;;;3.60;3.23;;;;;;;11.00;100.00;98674.34;4921710;29;20336;-61
2023/05/16 10:34:30;;;;;;;5.53;3.60;;;;;;;10.78;100.00;98679.88;4917708;29;20240;-61
2023/05/16 10:36:59;;;;;;;4.13;3.73;;;;;;;10.95;100.00;98680.00;4919715;29;20233;-60
2023/05/16 10:39:29;;;;;;;3.23;2.93;;;;;;;10.87;100.00;98685.16;4918117;29;20230;-61
2023/05/16 10:41:58;;;;;;;3.83;3.10;;;;;;;10.84;100.00;98686.31;4902581;29;20228;-61
2023/05/16 10:44:32;;;;;;;4.10;3.00;;;;;;;10.84;100.00;98686.31;4916358;29;20237;-61
2023/05/16 10:46:59;;;;;;;4.17;3.20;;;;;;;10.69;100.00;98688.59;4920884;29;20315;-61
2023/05/16 10:49:27;;;;;;;4.53;2.83;;;;;;;10.88;100.00;98690.25;4916147;29;20239;-62
2023/05/16 10:52:07;;;;;;;5.43;3.20;;;;;;;11.04;100.00;98691.34;4918936;29;20294;-61
2023/05/16 10:54:38;;;;;;;3.10;2.10;;;;;;;11.11;100.00;98681.09;4917112;29;20265;-61
2023/05/16 10:57:07;;;;;;;4.03;2.43;;;;;;;11.51;95.47;98675.28;4920817;29;20261;-61
2023/05/16 10:59:44;;;;;;;2.97;2.10;;;;;;;11.70;94.41;98683.88;4917264;29;20292;-61
2023/05/16 11:02:25;;;;;;;3.10;1.90;;;;;;;11.74;94.29;98684.38;4918162;29;20240;-61
2023/05/16 11:04:52;;;;;;;2.13;1.80;;;;;;;12.12;92.99;98687.50;4918344;29;20245;-60
2023/05/16 11:07:22;;;;;;;4.17;1.90;;;;;;;11.93;91.46;98689.38;4913894;29;20308;-61
2023/05/16 11:10:09;;;;;;;2.87;2.03;;;;;;;11.23;95.83;98688.53;4916740;29;20233;-60
2023/05/16 11:12:43;;;;;;;3.47;1.80;;;;;;;11.46;95.24;98700.28;4916294;29;20231;-61
2023/05/16 11:15:21;;;;;;;2.23;1.53;;;;;;;11.30;95.29;98693.97;4918018;29;20233;-61
2023/05/16 11:17:48;;;;;;;2.17;1.80;;;;;;;11.39;94.94;98694.81;4917547;29;20272;-60
2023/05/16 11:20:30;;;;;;;1.87;1.67;;;;;;;11.33;93.63;98698.88;4916645;29;20237;-60